sensor_id;sensor_type;location;lat;lon;timestamp;temperature;humidity
29687;DHT22;16599;47.078;15.536;2022-12-07T00:01:21;1.60;99.90
29687;DHT22;16599;47.078;15.536;2022-12-07T00:03:51;1.50;99.90
29687;DHT22;16599;47.078;15.536;2022-12-07T00:06:19;1.50;99.90
29687;DHT22;16599;47.078;15.536;2022-12-07T00:08:47;1.50;99.90
29687;DHT22;16599;47.078;15.536;2022-12-07T00:11:20;1.60;99.90
29687;DHT22;16599;47.078;15.536;2022-12-07T00:13:54;1.80;99.90
29687;DHT22;16599;47.078;15.536;2022-12-07T00:16:23;1.80;99.90
29687;DHT22;16599;47.078;15.536;2022-12-07T00:18:51;1.80;99.90
29687;DHT22;16599;47.078;15.536;2022-12-07T00:21:30;1.90;99.90
29687;DHT22;16599;47.078;15.536;2022-12-07T00:23:57;1.90;99.90
29687;DHT22;16599;47.078;15.536;2022-12-07T00:26:30;1.80;99.90
29687;DHT22;16599;47.078;15.536;2022-12-07T00:28:59;1.70;99.90
29687;DHT22;16599;47.078;15.536;2022-12-07T00:31:29;1.80;99.90
29687;DHT22;16599;47.078;15.536;2022-12-07T00:33:57;1.60;99.90
29687;DHT22;16599;47.078;15.536;2022-12-07T00:36:24;1.50;99.90
29687;DHT22;16599;47.078;15.536;2022-12-07T00:38:54;1.40;99.90
29687;DHT22;16599;47.078;15.536;2022-12-07T00:41:23;1.60;99.90
29687;DHT22;16599;47.078;15.536;2022-12-07T00:43:51;1.70;99.90
29687;DHT22;16599;47.078;15.536;2022-12-07T00:46:19;1.40;99.90
29687;DHT22;16599;47.078;15.536;2022-12-07T00:48:47;1.40;99.90
29687;DHT22;16599;47.078;15.536;2022-12-07T00:51:16;1.30;99.90
29687;DHT22;16599;47.078;15.536;2022-12-07T00:53:43;1.20;99.90
29687;DHT22;16599;47.078;15.536;2022-12-07T00:56:16;1.40;99.90
29687;DHT22;16599;47.078;15.536;2022-12-07T00:58:43;1.60;99.90
29687;DHT22;16599;47.078;15.536;2022-12-07T01:01:11;1.70;99.90
29687;DHT22;16599;47.078;15.536;2022-12-07T01:03:38;1.50;99.90
29687;DHT22;16599;47.078;15.536;2022-12-07T01:06:05;1.50;99.90
29687;DHT22;16599;47.078;15.536;2022-12-07T01:08:32;1.60;99.90
29687;DHT22;16599;47.078;15.536;2022-12-07T01:11:05;1.60;99.90
29687;DHT22;16599;47.078;15.536;2022-12-07T01:13:34;1.60;99.90
29687;DHT22;16599;47.078;15.536;2022-12-07T01:16:04;1.60;99.90
29687;DHT22;16599;47.078;15.536;2022-12-07T01:18:33;1.70;99.90
29687;DHT22;16599;47.078;15.536;2022-12-07T01:21:12;1.70;99.90
29687;DHT22;16599;47.078;15.536;2022-12-07T01:23:40;1.70;99.90
29687;DHT22;16599;47.078;15.536;2022-12-07T01:26:14;1.70;99.90
29687;DHT22;16599;47.078;15.536;2022-12-07T01:28:41;1.70;99.90
29687;DHT22;16599;47.078;15.536;2022-12-07T01:31:11;1.70;99.90
29687;DHT22;16599;47.078;15.536;2022-12-07T01:33:43;1.20;99.90
29687;DHT22;16599;47.078;15.536;2022-12-07T01:36:22;1.00;99.90
29687;DHT22;16599;47.078;15.536;2022-12-07T01:38:53;1.10;99.90
29687;DHT22;16599;47.078;15.536;2022-12-07T01:41:25;1.30;99.90
29687;DHT22;16599;47.078;15.536;2022-12-07T01:46:36;0.90;99.90
29687;DHT22;16599;47.078;15.536;2022-12-07T01:49:06;1.10;99.90
29687;DHT22;16599;47.078;15.536;2022-12-07T01:51:34;0.90;99.90
29687;DHT22;16599;47.078;15.536;2022-12-07T01:54:03;0.60;99.90
29687;DHT22;16599;47.078;15.536;2022-12-07T01:56:31;0.70;99.90
29687;DHT22;16599;47.078;15.536;2022-12-07T01:59:00;0.90;99.90
29687;DHT22;16599;47.078;15.536;2022-12-07T02:01:27;1.10;99.90
29687;DHT22;16599;47.078;15.536;2022-12-07T02:03:55;1.20;99.90
29687;DHT22;16599;47.078;15.536;2022-12-07T02:06:24;1.10;99.90
29687;DHT22;16599;47.078;15.536;2022-12-07T02:08:52;1.20;99.90
29687;DHT22;16599;47.078;15.536;2022-12-07T02:11:20;1.10;99.90
29687;DHT22;16599;47.078;15.536;2022-12-07T02:13:47;1.10;99.90
29687;DHT22;16599;47.078;15.536;2022-12-07T02:16:40;1.10;99.90
29687;DHT22;16599;47.078;15.536;2022-12-07T02:22:51;0.70;99.90
29687;DHT22;16599;47.078;15.536;2022-12-07T02:25:38;0.50;99.90
29687;DHT22;16599;47.078;15.536;2022-12-07T02:30:52;0.20;99.90
29687;DHT22;16599;47.078;15.536;2022-12-07T02:33:33;0.20;99.90
29687;DHT22;16599;47.078;15.536;2022-12-07T02:36:08;0.20;99.90
29687;DHT22;16599;47.078;15.536;2022-12-07T02:38:54;0.20;99.90
29687;DHT22;16599;47.078;15.536;2022-12-07T02:41:35;0.00;99.90
29687;DHT22;16599;47.078;15.536;2022-12-07T02:44:06;0.00;99.90
29687;DHT22;16599;47.078;15.536;2022-12-07T02:46:38;0.00;99.90
29687;DHT22;16599;47.078;15.536;2022-12-07T02:49:06;0.10;99.90
29687;DHT22;16599;47.078;15.536;2022-12-07T02:51:39;0.00;99.90
29687;DHT22;16599;47.078;15.536;2022-12-07T02:54:18;0.10;99.90
29687;DHT22;16599;47.078;15.536;2022-12-07T02:56:50;0.30;99.90
29687;DHT22;16599;47.078;15.536;2022-12-07T03:11:07;0.20;99.90
29687;DHT22;16599;47.078;15.536;2022-12-07T03:14:04;0.50;99.90
29687;DHT22;16599;47.078;15.536;2022-12-07T03:17:01;0.60;99.90
29687;DHT22;16599;47.078;15.536;2022-12-07T03:19:29;0.60;99.90
29687;DHT22;16599;47.078;15.536;2022-12-07T03:22:00;0.30;99.90
29687;DHT22;16599;47.078;15.536;2022-12-07T03:24:33;0.10;99.90
29687;DHT22;16599;47.078;15.536;2022-12-07T03:27:48;0.50;99.90
29687;DHT22;16599;47.078;15.536;2022-12-07T03:30:02;0.60;99.90
29687;DHT22;16599;47.078;15.536;2022-12-07T03:37:46;0.60;99.90
29687;DHT22;16599;47.078;15.536;2022-12-07T03:40:34;0.40;99.90
29687;DHT22;16599;47.078;15.536;2022-12-07T03:43:03;0.40;99.90
29687;DHT22;16599;47.078;15.536;2022-12-07T03:45:56;0.50;99.90
29687;DHT22;16599;47.078;15.536;2022-12-07T03:48:37;0.20;99.90
29687;DHT22;16599;47.078;15.536;2022-12-07T03:53:43;-0.10;99.90
29687;DHT22;16599;47.078;15.536;2022-12-07T03:56:11;-0.30;99.90
29687;DHT22;16599;47.078;15.536;2022-12-07T03:58:40;-0.10;99.90
29687;DHT22;16599;47.078;15.536;2022-12-07T04:01:07;-0.20;99.90
29687;DHT22;16599;47.078;15.536;2022-12-07T04:03:34;-0.20;99.90
29687;DHT22;16599;47.078;15.536;2022-12-07T04:06:01;-0.20;99.90
29687;DHT22;16599;47.078;15.536;2022-12-07T04:08:28;-0.20;99.90
29687;DHT22;16599;47.078;15.536;2022-12-07T04:10:55;-0.20;99.90
29687;DHT22;16599;47.078;15.536;2022-12-07T04:13:22;0.20;99.90
29687;DHT22;16599;47.078;15.536;2022-12-07T04:15:48;0.30;99.90
29687;DHT22;16599;47.078;15.536;2022-12-07T04:18:15;0.30;99.90
29687;DHT22;16599;47.078;15.536;2022-12-07T04:20:42;0.30;99.90
29687;DHT22;16599;47.078;15.536;2022-12-07T04:23:09;0.40;99.90
29687;DHT22;16599;47.078;15.536;2022-12-07T04:25:36;0.10;99.90
29687;DHT22;16599;47.078;15.536;2022-12-07T04:28:03;0.00;99.90
29687;DHT22;16599;47.078;15.536;2022-12-07T04:30:30;-0.20;99.90
29687;DHT22;16599;47.078;15.536;2022-12-07T04:32:56;-0.30;99.90
29687;DHT22;16599;47.078;15.536;2022-12-07T04:35:23;-0.20;99.90
29687;DHT22;16599;47.078;15.536;2022-12-07T04:37:50;-0.30;99.90
29687;DHT22;16599;47.078;15.536;2022-12-07T04:40:17;-0.10;99.90
29687;DHT22;16599;47.078;15.536;2022-12-07T04:42:44;-0.10;99.90
29687;DHT22;16599;47.078;15.536;2022-12-07T04:45:10;-0.20;99.90
29687;DHT22;16599;47.078;15.536;2022-12-07T04:47:37;-0.30;99.90
29687;DHT22;16599;47.078;15.536;2022-12-07T04:50:09;-0.20;99.90
29687;DHT22;16599;47.078;15.536;2022-12-07T04:52:36;-0.40;99.90
29687;DHT22;16599;47.078;15.536;2022-12-07T04:55:13;-0.20;99.90
29687;DHT22;16599;47.078;15.536;2022-12-07T04:57:40;-0.20;99.90
29687;DHT22;16599;47.078;15.536;2022-12-07T05:00:07;-0.30;99.90
29687;DHT22;16599;47.078;15.536;2022-12-07T05:02:34;-0.30;99.90
29687;DHT22;16599;47.078;15.536;2022-12-07T05:05:01;-0.50;99.90
29687;DHT22;16599;47.078;15.536;2022-12-07T05:07:28;-0.50;99.90
29687;DHT22;16599;47.078;15.536;2022-12-07T05:09:54;-0.40;99.90
29687;DHT22;16599;47.078;15.536;2022-12-07T05:12:21;-0.50;99.90
29687;DHT22;16599;47.078;15.536;2022-12-07T05:14:48;-0.40;99.90
29687;DHT22;16599;47.078;15.536;2022-12-07T05:17:15;-0.50;99.90
29687;DHT22;16599;47.078;15.536;2022-12-07T05:19:43;-0.60;99.90
29687;DHT22;16599;47.078;15.536;2022-12-07T05:22:10;-0.60;99.90
29687;DHT22;16599;47.078;15.536;2022-12-07T05:24:37;-0.50;99.90
29687;DHT22;16599;47.078;15.536;2022-12-07T05:27:04;-0.50;99.90
29687;DHT22;16599;47.078;15.536;2022-12-07T05:29:31;-0.40;99.90
29687;DHT22;16599;47.078;15.536;2022-12-07T05:31:57;-0.30;99.90
29687;DHT22;16599;47.078;15.536;2022-12-07T05:34:24;-0.10;99.90
29687;DHT22;16599;47.078;15.536;2022-12-07T05:36:51;-0.10;99.90
29687;DHT22;16599;47.078;15.536;2022-12-07T05:39:18;-0.10;99.90
29687;DHT22;16599;47.078;15.536;2022-12-07T05:41:45;0.00;99.90
29687;DHT22;16599;47.078;15.536;2022-12-07T05:44:30;-0.10;99.90
29687;DHT22;16599;47.078;15.536;2022-12-07T05:46:57;-0.10;99.90
29687;DHT22;16599;47.078;15.536;2022-12-07T05:49:24;-0.20;99.90
29687;DHT22;16599;47.078;15.536;2022-12-07T05:51:50;-0.20;99.90
29687;DHT22;16599;47.078;15.536;2022-12-07T05:54:17;-0.30;99.90
29687;DHT22;16599;47.078;15.536;2022-12-07T05:56:44;-0.30;99.90
29687;DHT22;16599;47.078;15.536;2022-12-07T05:59:11;-0.20;99.90
29687;DHT22;16599;47.078;15.536;2022-12-07T06:01:59;-0.40;99.90
29687;DHT22;16599;47.078;15.536;2022-12-07T06:04:29;-0.20;99.90
29687;DHT22;16599;47.078;15.536;2022-12-07T06:06:57;-0.20;99.90
29687;DHT22;16599;47.078;15.536;2022-12-07T06:09:26;-0.20;99.90
29687;DHT22;16599;47.078;15.536;2022-12-07T06:11:53;-0.20;99.90
29687;DHT22;16599;47.078;15.536;2022-12-07T06:14:39;-0.50;99.90
29687;DHT22;16599;47.078;15.536;2022-12-07T06:17:06;-0.30;99.90
29687;DHT22;16599;47.078;15.536;2022-12-07T06:19:33;-0.20;99.90
29687;DHT22;16599;47.078;15.536;2022-12-07T06:22:01;-0.20;99.90
29687;DHT22;16599;47.078;15.536;2022-12-07T06:24:28;-0.40;99.90
29687;DHT22;16599;47.078;15.536;2022-12-07T06:26:54;-0.50;99.90
29687;DHT22;16599;47.078;15.536;2022-12-07T06:29:21;-0.60;99.90
29687;DHT22;16599;47.078;15.536;2022-12-07T06:31:48;-0.50;99.90
29687;DHT22;16599;47.078;15.536;2022-12-07T06:34:17;-0.40;99.90
29687;DHT22;16599;47.078;15.536;2022-12-07T06:36:45;-0.60;99.90
29687;DHT22;16599;47.078;15.536;2022-12-07T06:39:18;-0.60;99.90
29687;DHT22;16599;47.078;15.536;2022-12-07T06:41:45;-0.80;99.90
29687;DHT22;16599;47.078;15.536;2022-12-07T06:44:12;-0.70;99.90
29687;DHT22;16599;47.078;15.536;2022-12-07T06:46:39;-0.50;99.90
29687;DHT22;16599;47.078;15.536;2022-12-07T06:49:06;-0.40;99.90
29687;DHT22;16599;47.078;15.536;2022-12-07T06:51:34;-0.60;99.90
29687;DHT22;16599;47.078;15.536;2022-12-07T06:54:03;-0.70;99.90
29687;DHT22;16599;47.078;15.536;2022-12-07T06:56:30;-0.80;99.90
29687;DHT22;16599;47.078;15.536;2022-12-07T06:58:57;-0.80;99.90
29687;DHT22;16599;47.078;15.536;2022-12-07T07:01:24;-0.90;99.90
29687;DHT22;16599;47.078;15.536;2022-12-07T07:03:51;-0.90;99.90
29687;DHT22;16599;47.078;15.536;2022-12-07T07:06:18;-0.90;99.90
29687;DHT22;16599;47.078;15.536;2022-12-07T07:08:45;-0.80;99.90
29687;DHT22;16599;47.078;15.536;2022-12-07T07:11:12;-0.70;99.90
29687;DHT22;16599;47.078;15.536;2022-12-07T07:13:39;-0.70;99.90
29687;DHT22;16599;47.078;15.536;2022-12-07T07:16:07;-0.40;99.90
29687;DHT22;16599;47.078;15.536;2022-12-07T07:18:34;-0.40;99.90
29687;DHT22;16599;47.078;15.536;2022-12-07T07:21:01;-0.40;99.90
29687;DHT22;16599;47.078;15.536;2022-12-07T07:23:28;-0.40;99.90
29687;DHT22;16599;47.078;15.536;2022-12-07T07:25:59;-0.40;99.90
29687;DHT22;16599;47.078;15.536;2022-12-07T07:28:25;-0.30;99.90
29687;DHT22;16599;47.078;15.536;2022-12-07T07:30:53;-0.20;99.90
29687;DHT22;16599;47.078;15.536;2022-12-07T07:33:19;-0.20;99.90
29687;DHT22;16599;47.078;15.536;2022-12-07T07:35:46;0.00;99.90
29687;DHT22;16599;47.078;15.536;2022-12-07T07:38:13;0.00;99.90
29687;DHT22;16599;47.078;15.536;2022-12-07T07:40:40;0.10;99.90
29687;DHT22;16599;47.078;15.536;2022-12-07T07:43:07;0.10;99.90
29687;DHT22;16599;47.078;15.536;2022-12-07T07:45:34;0.20;99.90
29687;DHT22;16599;47.078;15.536;2022-12-07T07:48:01;0.10;99.90
29687;DHT22;16599;47.078;15.536;2022-12-07T07:50:28;0.20;99.90
29687;DHT22;16599;47.078;15.536;2022-12-07T07:52:57;0.30;99.90
29687;DHT22;16599;47.078;15.536;2022-12-07T07:55:24;0.30;99.90
29687;DHT22;16599;47.078;15.536;2022-12-07T07:57:50;0.20;99.90
29687;DHT22;16599;47.078;15.536;2022-12-07T08:00:20;0.30;99.90
29687;DHT22;16599;47.078;15.536;2022-12-07T08:02:47;0.30;99.90
29687;DHT22;16599;47.078;15.536;2022-12-07T08:05:16;0.30;99.90
29687;DHT22;16599;47.078;15.536;2022-12-07T08:07:43;0.40;99.90
29687;DHT22;16599;47.078;15.536;2022-12-07T08:10:12;0.20;99.90
29687;DHT22;16599;47.078;15.536;2022-12-07T08:12:40;0.30;99.90
29687;DHT22;16599;47.078;15.536;2022-12-07T08:15:30;0.40;99.90
29687;DHT22;16599;47.078;15.536;2022-12-07T08:17:58;0.30;99.90
29687;DHT22;16599;47.078;15.536;2022-12-07T08:20:25;0.30;99.90
29687;DHT22;16599;47.078;15.536;2022-12-07T08:22:52;0.40;99.90
29687;DHT22;16599;47.078;15.536;2022-12-07T08:25:19;0.50;99.90
29687;DHT22;16599;47.078;15.536;2022-12-07T08:27:46;0.30;99.90
29687;DHT22;16599;47.078;15.536;2022-12-07T08:30:13;0.40;99.90
29687;DHT22;16599;47.078;15.536;2022-12-07T08:32:40;0.50;99.90
29687;DHT22;16599;47.078;15.536;2022-12-07T08:35:08;0.60;99.90
29687;DHT22;16599;47.078;15.536;2022-12-07T08:37:35;0.80;99.90
29687;DHT22;16599;47.078;15.536;2022-12-07T08:40:02;0.80;99.90
29687;DHT22;16599;47.078;15.536;2022-12-07T08:42:30;1.00;99.90
29687;DHT22;16599;47.078;15.536;2022-12-07T08:45:09;1.10;99.90
29687;DHT22;16599;47.078;15.536;2022-12-07T08:47:43;1.10;99.90
29687;DHT22;16599;47.078;15.536;2022-12-07T08:50:12;1.10;99.90
29687;DHT22;16599;47.078;15.536;2022-12-07T08:52:40;1.20;99.90
29687;DHT22;16599;47.078;15.536;2022-12-07T08:55:10;1.20;99.90
29687;DHT22;16599;47.078;15.536;2022-12-07T08:57:37;1.20;99.90
29687;DHT22;16599;47.078;15.536;2022-12-07T09:00:05;1.20;99.90
29687;DHT22;16599;47.078;15.536;2022-12-07T09:02:32;1.10;99.90
29687;DHT22;16599;47.078;15.536;2022-12-07T09:04:59;1.10;99.90
29687;DHT22;16599;47.078;15.536;2022-12-07T09:07:26;1.20;99.90
29687;DHT22;16599;47.078;15.536;2022-12-07T09:09:53;1.30;99.90
29687;DHT22;16599;47.078;15.536;2022-12-07T09:12:20;1.30;99.90
29687;DHT22;16599;47.078;15.536;2022-12-07T09:14:47;1.40;99.90
29687;DHT22;16599;47.078;15.536;2022-12-07T09:17:13;1.50;99.90
29687;DHT22;16599;47.078;15.536;2022-12-07T09:19:40;1.60;99.90
29687;DHT22;16599;47.078;15.536;2022-12-07T09:22:09;1.60;99.90
29687;DHT22;16599;47.078;15.536;2022-12-07T09:24:36;1.50;99.90
29687;DHT22;16599;47.078;15.536;2022-12-07T09:27:06;1.60;99.90
29687;DHT22;16599;47.078;15.536;2022-12-07T09:29:32;1.60;99.90
29687;DHT22;16599;47.078;15.536;2022-12-07T09:31:59;1.50;99.90
29687;DHT22;16599;47.078;15.536;2022-12-07T09:34:27;1.60;99.90
29687;DHT22;16599;47.078;15.536;2022-12-07T09:36:53;1.80;99.90
29687;DHT22;16599;47.078;15.536;2022-12-07T09:39:20;1.90;99.90
29687;DHT22;16599;47.078;15.536;2022-12-07T09:41:47;2.00;99.90
29687;DHT22;16599;47.078;15.536;2022-12-07T09:44:22;2.00;99.90
29687;DHT22;16599;47.078;15.536;2022-12-07T09:46:50;2.10;99.90
29687;DHT22;16599;47.078;15.536;2022-12-07T09:49:21;1.90;99.90
29687;DHT22;16599;47.078;15.536;2022-12-07T09:52:21;1.90;99.90
29687;DHT22;16599;47.078;15.536;2022-12-07T09:54:48;2.10;99.90
29687;DHT22;16599;47.078;15.536;2022-12-07T09:57:16;2.10;99.90
29687;DHT22;16599;47.078;15.536;2022-12-07T09:59:43;2.20;99.90
29687;DHT22;16599;47.078;15.536;2022-12-07T10:04:51;2.20;99.90
29687;DHT22;16599;47.078;15.536;2022-12-07T10:07:18;2.20;99.90
29687;DHT22;16599;47.078;15.536;2022-12-07T10:09:45;2.20;99.90
29687;DHT22;16599;47.078;15.536;2022-12-07T10:12:12;2.30;99.90
29687;DHT22;16599;47.078;15.536;2022-12-07T10:14:57;2.40;99.90
29687;DHT22;16599;47.078;15.536;2022-12-07T10:17:40;2.40;99.90
29687;DHT22;16599;47.078;15.536;2022-12-07T10:22:57;2.50;99.90
29687;DHT22;16599;47.078;15.536;2022-12-07T10:25:28;2.60;99.90
29687;DHT22;16599;47.078;15.536;2022-12-07T10:28:21;2.60;99.90
29687;DHT22;16599;47.078;15.536;2022-12-07T10:33:37;2.50;99.90
29687;DHT22;16599;47.078;15.536;2022-12-07T10:39:20;2.60;99.90
29687;DHT22;16599;47.078;15.536;2022-12-07T10:41:57;2.80;99.90
29687;DHT22;16599;47.078;15.536;2022-12-07T10:44:29;2.90;99.90
29687;DHT22;16599;47.078;15.536;2022-12-07T11:12:33;3.40;99.90
29687;DHT22;16599;47.078;15.536;2022-12-07T11:23:35;3.60;99.90
29687;DHT22;16599;47.078;15.536;2022-12-07T11:37:11;3.70;99.90
29687;DHT22;16599;47.078;15.536;2022-12-07T11:39:48;3.70;99.90
29687;DHT22;16599;47.078;15.536;2022-12-07T11:42:29;3.80;99.90
29687;DHT22;16599;47.078;15.536;2022-12-07T11:45:20;3.80;99.90
29687;DHT22;16599;47.078;15.536;2022-12-07T11:48:03;3.70;99.90
29687;DHT22;16599;47.078;15.536;2022-12-07T11:50:36;3.60;99.90
29687;DHT22;16599;47.078;15.536;2022-12-07T11:56:06;3.40;99.90
29687;DHT22;16599;47.078;15.536;2022-12-07T11:58:51;3.40;99.90
29687;DHT22;16599;47.078;15.536;2022-12-07T12:04:23;3.10;99.90
29687;DHT22;16599;47.078;15.536;2022-12-07T12:06:53;3.20;99.90
29687;DHT22;16599;47.078;15.536;2022-12-07T12:09:24;3.30;99.90
29687;DHT22;16599;47.078;15.536;2022-12-07T12:19:03;3.40;99.90
29687;DHT22;16599;47.078;15.536;2022-12-07T12:21:33;3.50;99.90
29687;DHT22;16599;47.078;15.536;2022-12-07T12:24:09;3.50;99.90
29687;DHT22;16599;47.078;15.536;2022-12-07T12:26:38;3.60;99.90
29687;DHT22;16599;47.078;15.536;2022-12-07T12:29:13;3.80;99.90
29687;DHT22;16599;47.078;15.536;2022-12-07T12:31:47;3.90;99.90
29687;DHT22;16599;47.078;15.536;2022-12-07T12:42:53;3.80;99.90
29687;DHT22;16599;47.078;15.536;2022-12-07T12:45:22;3.70;99.90
29687;DHT22;16599;47.078;15.536;2022-12-07T12:48:00;3.80;99.90
29687;DHT22;16599;47.078;15.536;2022-12-07T12:53:24;4.00;99.90
29687;DHT22;16599;47.078;15.536;2022-12-07T12:58:47;4.20;99.90
29687;DHT22;16599;47.078;15.536;2022-12-07T13:03:55;4.10;99.90
29687;DHT22;16599;47.078;15.536;2022-12-07T13:08:59;4.10;99.90
29687;DHT22;16599;47.078;15.536;2022-12-07T13:11:33;4.00;99.90
29687;DHT22;16599;47.078;15.536;2022-12-07T13:17:11;4.00;99.90
29687;DHT22;16599;47.078;15.536;2022-12-07T13:25:18;3.80;99.90
29687;DHT22;16599;47.078;15.536;2022-12-07T13:28:02;3.80;99.90
29687;DHT22;16599;47.078;15.536;2022-12-07T13:30:29;3.70;99.90
29687;DHT22;16599;47.078;15.536;2022-12-07T13:32:58;3.60;99.90
29687;DHT22;16599;47.078;15.536;2022-12-07T13:35:36;3.50;99.90
29687;DHT22;16599;47.078;15.536;2022-12-07T13:41:04;3.70;99.90
29687;DHT22;16599;47.078;15.536;2022-12-07T13:43:41;3.70;99.90
29687;DHT22;16599;47.078;15.536;2022-12-07T13:46:09;3.60;99.90
29687;DHT22;16599;47.078;15.536;2022-12-07T13:48:48;3.50;99.90
29687;DHT22;16599;47.078;15.536;2022-12-07T13:51:27;3.30;99.90
29687;DHT22;16599;47.078;15.536;2022-12-07T13:53:59;3.30;99.90
29687;DHT22;16599;47.078;15.536;2022-12-07T13:56:34;3.30;99.90
29687;DHT22;16599;47.078;15.536;2022-12-07T13:59:01;3.20;99.90
29687;DHT22;16599;47.078;15.536;2022-12-07T14:01:31;3.20;99.90
29687;DHT22;16599;47.078;15.536;2022-12-07T14:04:17;3.10;99.90
29687;DHT22;16599;47.078;15.536;2022-12-07T14:06:51;2.80;99.90
29687;DHT22;16599;47.078;15.536;2022-12-07T14:09:24;2.60;99.90
29687;DHT22;16599;47.078;15.536;2022-12-07T14:11:53;2.60;99.90
29687;DHT22;16599;47.078;15.536;2022-12-07T14:14:24;2.50;99.90
29687;DHT22;16599;47.078;15.536;2022-12-07T14:17:12;2.50;99.90
29687;DHT22;16599;47.078;15.536;2022-12-07T14:19:59;2.50;99.90
29687;DHT22;16599;47.078;15.536;2022-12-07T14:22:27;2.40;99.90
29687;DHT22;16599;47.078;15.536;2022-12-07T14:24:59;2.40;99.90
29687;DHT22;16599;47.078;15.536;2022-12-07T14:27:32;2.30;99.90
29687;DHT22;16599;47.078;15.536;2022-12-07T14:30:02;2.20;99.90
29687;DHT22;16599;47.078;15.536;2022-12-07T14:32:30;2.20;99.90
29687;DHT22;16599;47.078;15.536;2022-12-07T14:35:07;2.30;99.90
29687;DHT22;16599;47.078;15.536;2022-12-07T14:37:37;2.40;99.90
29687;DHT22;16599;47.078;15.536;2022-12-07T14:40:05;2.40;99.90
29687;DHT22;16599;47.078;15.536;2022-12-07T14:42:33;2.20;99.90
29687;DHT22;16599;47.078;15.536;2022-12-07T14:45:00;2.10;99.90
29687;DHT22;16599;47.078;15.536;2022-12-07T14:47:28;2.20;99.90
29687;DHT22;16599;47.078;15.536;2022-12-07T14:50:17;2.10;99.90
29687;DHT22;16599;47.078;15.536;2022-12-07T14:53:12;2.20;99.90
29687;DHT22;16599;47.078;15.536;2022-12-07T14:55:55;2.20;99.90
29687;DHT22;16599;47.078;15.536;2022-12-07T14:58:22;2.20;99.90
29687;DHT22;16599;47.078;15.536;2022-12-07T15:00:51;2.20;99.90
29687;DHT22;16599;47.078;15.536;2022-12-07T15:03:18;2.20;99.90
29687;DHT22;16599;47.078;15.536;2022-12-07T15:05:45;2.10;99.90
29687;DHT22;16599;47.078;15.536;2022-12-07T15:08:12;2.10;99.90
29687;DHT22;16599;47.078;15.536;2022-12-07T15:10:40;2.10;99.90
29687;DHT22;16599;47.078;15.536;2022-12-07T15:13:07;2.00;99.90
29687;DHT22;16599;47.078;15.536;2022-12-07T15:15:54;2.00;99.90
29687;DHT22;16599;47.078;15.536;2022-12-07T15:18:22;2.10;99.90
29687;DHT22;16599;47.078;15.536;2022-12-07T15:20:50;2.10;99.90
29687;DHT22;16599;47.078;15.536;2022-12-07T15:23:17;1.90;99.90
29687;DHT22;16599;47.078;15.536;2022-12-07T15:25:46;1.90;99.90
29687;DHT22;16599;47.078;15.536;2022-12-07T15:28:14;1.90;99.90
29687;DHT22;16599;47.078;15.536;2022-12-07T15:30:42;2.00;99.90
29687;DHT22;16599;47.078;15.536;2022-12-07T15:33:10;2.00;99.90
29687;DHT22;16599;47.078;15.536;2022-12-07T15:35:41;1.90;99.90
29687;DHT22;16599;47.078;15.536;2022-12-07T15:38:09;1.90;99.90
29687;DHT22;16599;47.078;15.536;2022-12-07T15:40:36;1.90;99.90
29687;DHT22;16599;47.078;15.536;2022-12-07T15:43:03;2.00;99.90
29687;DHT22;16599;47.078;15.536;2022-12-07T15:45:30;2.00;99.90
29687;DHT22;16599;47.078;15.536;2022-12-07T15:47:57;1.90;99.90
29687;DHT22;16599;47.078;15.536;2022-12-07T15:50:44;1.80;99.90
29687;DHT22;16599;47.078;15.536;2022-12-07T15:53:11;1.50;99.90
29687;DHT22;16599;47.078;15.536;2022-12-07T15:55:41;1.50;99.90
29687;DHT22;16599;47.078;15.536;2022-12-07T15:58:08;1.50;99.90
29687;DHT22;16599;47.078;15.536;2022-12-07T16:00:34;1.60;99.90
29687;DHT22;16599;47.078;15.536;2022-12-07T16:03:01;1.60;99.90
29687;DHT22;16599;47.078;15.536;2022-12-07T16:05:28;1.50;99.90
29687;DHT22;16599;47.078;15.536;2022-12-07T16:07:55;1.50;99.90
29687;DHT22;16599;47.078;15.536;2022-12-07T16:10:22;1.50;99.90
29687;DHT22;16599;47.078;15.536;2022-12-07T16:12:49;1.50;99.90
29687;DHT22;16599;47.078;15.536;2022-12-07T16:15:15;1.60;99.90
29687;DHT22;16599;47.078;15.536;2022-12-07T16:17:50;1.60;99.90
29687;DHT22;16599;47.078;15.536;2022-12-07T16:20:17;1.70;99.90
29687;DHT22;16599;47.078;15.536;2022-12-07T16:22:44;1.70;99.90
29687;DHT22;16599;47.078;15.536;2022-12-07T16:25:11;1.80;99.90
29687;DHT22;16599;47.078;15.536;2022-12-07T16:27:37;1.90;99.90
29687;DHT22;16599;47.078;15.536;2022-12-07T16:30:05;2.00;99.90
29687;DHT22;16599;47.078;15.536;2022-12-07T16:32:32;1.90;99.90
29687;DHT22;16599;47.078;15.536;2022-12-07T16:34:59;1.90;99.90
29687;DHT22;16599;47.078;15.536;2022-12-07T16:37:26;1.80;99.90
29687;DHT22;16599;47.078;15.536;2022-12-07T16:39:53;1.90;99.90
29687;DHT22;16599;47.078;15.536;2022-12-07T16:42:20;1.80;99.90
29687;DHT22;16599;47.078;15.536;2022-12-07T16:44:46;1.80;99.90
29687;DHT22;16599;47.078;15.536;2022-12-07T16:47:13;1.80;99.90
29687;DHT22;16599;47.078;15.536;2022-12-07T16:49:40;1.90;99.90
29687;DHT22;16599;47.078;15.536;2022-12-07T16:52:09;1.90;99.90
29687;DHT22;16599;47.078;15.536;2022-12-07T16:54:51;1.90;99.90
29687;DHT22;16599;47.078;15.536;2022-12-07T16:57:18;1.90;99.90
29687;DHT22;16599;47.078;15.536;2022-12-07T16:59:50;2.00;99.90
29687;DHT22;16599;47.078;15.536;2022-12-07T17:02:21;2.00;99.90
29687;DHT22;16599;47.078;15.536;2022-12-07T17:04:48;2.10;99.90
29687;DHT22;16599;47.078;15.536;2022-12-07T17:07:15;2.00;99.90
29687;DHT22;16599;47.078;15.536;2022-12-07T17:09:41;2.00;99.90
29687;DHT22;16599;47.078;15.536;2022-12-07T17:12:08;2.00;99.90
29687;DHT22;16599;47.078;15.536;2022-12-07T17:14:35;2.00;99.90
29687;DHT22;16599;47.078;15.536;2022-12-07T17:17:20;2.00;99.90
29687;DHT22;16599;47.078;15.536;2022-12-07T17:19:47;2.00;99.90
29687;DHT22;16599;47.078;15.536;2022-12-07T17:22:14;2.00;99.90
29687;DHT22;16599;47.078;15.536;2022-12-07T17:24:41;1.90;99.90
29687;DHT22;16599;47.078;15.536;2022-12-07T17:27:08;2.00;99.90
29687;DHT22;16599;47.078;15.536;2022-12-07T17:29:35;2.10;99.90
29687;DHT22;16599;47.078;15.536;2022-12-07T17:32:02;2.10;99.90
29687;DHT22;16599;47.078;15.536;2022-12-07T17:34:29;2.20;99.90
29687;DHT22;16599;47.078;15.536;2022-12-07T17:36:55;2.10;99.90
29687;DHT22;16599;47.078;15.536;2022-12-07T17:39:22;2.10;99.90
29687;DHT22;16599;47.078;15.536;2022-12-07T17:41:49;2.10;99.90
29687;DHT22;16599;47.078;15.536;2022-12-07T17:44:34;2.10;99.90
29687;DHT22;16599;47.078;15.536;2022-12-07T17:47:01;2.10;99.90
29687;DHT22;16599;47.078;15.536;2022-12-07T17:49:29;2.20;99.90
29687;DHT22;16599;47.078;15.536;2022-12-07T17:51:57;2.20;99.90
29687;DHT22;16599;47.078;15.536;2022-12-07T17:54:42;2.20;99.90
29687;DHT22;16599;47.078;15.536;2022-12-07T17:57:09;2.30;99.90